GOOY/DKR METAR and TAF weather

Enter ICAO airport designator
Station Type Date Time Source
GOOY METAR 2018/04/21 11:00 UTC NOAA

GOOY 211100Z 02011KT CAVOK 22/18 Q1014


Station Type Date Time Source
GOOY Decoded METAR 2018/04/21 11:00 UTC NOAA

Dakar / Yoff, Senegal (GOOY) 14-44N 017-30W 24M
Apr 21, 2018 - 07:00 AM EDT / 2018.04.21 1100 UTC
Wind: from the NNE (020 degrees) at 13 MPH (11 KT):0
Visibility: greater than 7 mile(s):0
Temperature: 71 F (22 C)
Dew Point: 64 F (18 C)
Relative Humidity: 78%
Pressure (altimeter): 29.94 in. Hg (1014 hPa)
ob: GOOY 211100Z 02011KT CAVOK 22/18 Q1014
cycle: 11

Station Type Date Time Source
GOOY TAF 2018/04/21 12:30 UTC NOAA

TAF GOOY 211130Z 2112/2218 36013KT CAVOK


Example: see airport list